Terminal Aerodrome Forecast
Issued by NWS

Home | Current Version | Previous Version | Text Only | Print | Product List | Glossary On
Versions: 1 2 3 4 5 6 7 8 9 10 11 12
000
FTUS42 TJSJ 221141
TAFJBQ
TAF
TJBQ 221141Z 2212/2312 11006KT P6SM FEW060
     FM221400 08015G22KT P6SM SCT030
     FM221800 09019G26KT P6SM VCSH SCT025 SCT060
     FM222350 10010KT P6SM SCT050
      AMD NOT SKED 2302/2311=

USA.gov is the U.S. government's official web portal to all federal, state and local government web resources and services.